Time;durP1;ratioP1;P1;durP2;ratioP2;P2;SDS_P1;SDS_P2;PMS_P1;PMS_P2;Temp;Humidity;BMP_temperature;BMP_pressure;BME280_temperature;BME280_humidity;BME280_pressure;Samples;Min_cycle;Max_cycle;Signal;HPM_P1;HPM_P2
2021/12/18 00:01:02;;;;;;;13.33;10.33;;;2.40;99.90;;;;;;5098838;28;20440;-91
2021/12/18 00:03:28;;;;;;;15.33;10.47;;;2.50;99.90;;;;;;5116647;28;20215;-89
2021/12/18 00:05:54;;;;;;;12.10;10.10;;;2.50;99.90;;;;;;5094766;28;20707;-88
2021/12/18 00:08:19;;;;;;;11.20;10.00;;;2.40;99.90;;;;;;5095430;28;20236;-90
2021/12/18 00:10:45;;;;;;;13.77;10.57;;;2.40;99.90;;;;;;5096343;28;20198;-92
2021/12/18 00:13:13;;;;;;;13.70;10.63;;;2.20;99.90;;;;;;5096803;28;20231;-92
2021/12/18 00:15:38;;;;;;;15.63;11.97;;;2.20;99.90;;;;;;5100389;28;20164;-93
2021/12/18 00:18:04;;;;;;;15.07;10.87;;;2.40;99.90;;;;;;5124672;28;20593;-91
2021/12/18 00:20:30;;;;;;;16.00;11.37;;;2.50;99.90;;;;;;5115070;28;20180;-93
2021/12/18 00:22:57;;;;;;;14.03;11.70;;;2.30;99.90;;;;;;5116443;28;20175;-93
2021/12/18 00:25:24;;;;;;;16.33;12.67;;;2.20;99.90;;;;;;5134945;28;20194;-91
2021/12/18 00:27:50;;;;;;;17.30;12.30;;;2.20;99.90;;;;;;5115840;28;20235;-89
2021/12/18 00:30:16;;;;;;;18.27;13.87;;;2.20;99.90;;;;;;5113251;28;20173;-87
2021/12/18 00:32:42;;;;;;;16.97;13.00;;;2.20;99.90;;;;;;5118452;28;20209;-91
2021/12/18 00:35:08;;;;;;;17.30;13.93;;;2.10;99.90;;;;;;5119978;28;20172;-91
2021/12/18 00:37:34;;;;;;;20.60;15.17;;;2.00;99.90;;;;;;5133627;28;20175;-88
2021/12/18 00:40:01;;;;;;;21.13;15.30;;;2.00;99.90;;;;;;5124143;28;20258;-89
2021/12/18 00:45:26;;;;;;;22.10;15.53;;;1.80;99.90;;;;;;5048021;28;20226;-91
2021/12/18 00:47:52;;;;;;;22.93;15.40;;;1.70;99.90;;;;;;5044898;28;20177;-88
2021/12/18 00:50:21;;;;;;;23.87;16.23;;;1.70;99.90;;;;;;5017317;28;20615;-88
2021/12/18 00:52:47;;;;;;;23.53;16.00;;;1.70;99.90;;;;;;5031319;28;20212;-90
2021/12/18 00:55:14;;;;;;;23.03;16.43;;;1.70;99.90;;;;;;5030967;28;20187;-92
2021/12/18 00:57:40;;;;;;;21.77;16.23;;;1.60;99.90;;;;;;5030857;28;20261;-91
2021/12/18 01:00:09;;;;;;;21.47;16.37;;;1.70;99.90;;;;;;5031530;28;20679;-91
2021/12/18 01:02:36;;;;;;;21.67;15.50;;;1.70;99.90;;;;;;5030318;28;20193;-90
2021/12/18 01:05:04;;;;;;;23.00;15.33;;;1.70;99.90;;;;;;5034875;28;20205;-92
2021/12/18 01:07:29;;;;;;;22.87;15.33;;;1.80;99.90;;;;;;5040948;28;20186;-88
2021/12/18 01:12:43;;;;;;;20.70;15.67;;;1.70;99.90;;;;;;5042534;28;20229;-92
2021/12/18 01:15:27;;;;;;;23.23;17.23;;;1.70;99.90;;;;;;5015004;28;20260;-92
2021/12/18 01:23:23;;;;;;;24.60;17.17;;;1.70;99.90;;;;;;5093839;28;20207;-89
2021/12/18 01:25:50;;;;;;;22.73;16.73;;;1.70;99.90;;;;;;5075794;28;20191;-92
2021/12/18 01:28:16;;;;;;;21.83;15.67;;;1.80;99.90;;;;;;5103475;28;20173;-92
2021/12/18 01:30:42;;;;;;;22.60;16.30;;;1.70;99.90;;;;;;5107431;28;20525;-92
2021/12/18 01:33:08;;;;;;;20.83;15.27;;;1.80;99.90;;;;;;5102549;28;20208;-90
2021/12/18 01:35:34;;;;;;;17.53;13.73;;;1.80;99.90;;;;;;5086049;28;20251;-91
2021/12/18 01:38:00;;;;;;;21.10;13.43;;;1.80;99.90;;;;;;5094996;28;20258;-91
2021/12/18 01:40:26;;;;;;;20.00;14.30;;;1.90;99.90;;;;;;5077825;28;20177;-91
2021/12/18 01:46:07;;;;;;;20.73;12.13;;;1.80;99.90;;;;;;5111405;28;20793;-91
2021/12/18 01:52:01;;;;;;;13.27;10.40;;;1.80;99.90;;;;;;5053818;28;20211;-93
2021/12/18 01:54:27;;;;;;;12.97;10.53;;;1.90;99.90;;;;;;5097165;28;20221;-92
2021/12/18 01:56:52;;;;;;;12.73;10.17;;;1.80;99.90;;;;;;5115970;28;20225;-91
2021/12/18 01:59:33;;;;;;;13.67;10.97;;;1.70;99.90;;;;;;5114856;28;20180;-90
2021/12/18 02:01:59;;;;;;;13.97;10.47;;;1.70;99.90;;;;;;5096965;28;20171;-87
2021/12/18 02:04:24;;;;;;;13.30;10.33;;;1.80;99.90;;;;;;5096702;28;20232;-90
2021/12/18 02:06:50;;;;;;;13.00;10.40;;;1.70;99.90;;;;;;5097024;28;20199;-88
2021/12/18 02:09:17;;;;;;;12.77;10.17;;;1.80;99.90;;;;;;5115193;28;20220;-90
2021/12/18 02:11:43;;;;;;;11.53;9.87;;;1.70;99.90;;;;;;5097091;28;20213;-87
2021/12/18 02:14:23;;;;;;;17.23;12.33;;;1.70;99.90;;;;;;5101958;28;20185;-91
2021/12/18 02:22:38;;;;;;;21.00;15.43;;;1.60;99.90;;;;;;5051765;28;20180;-89
2021/12/18 02:25:04;;;;;;;21.27;14.87;;;1.50;99.90;;;;;;5034784;28;20181;-86
2021/12/18 02:27:30;;;;;;;24.07;15.00;;;1.40;99.90;;;;;;5080834;28;20222;-88
2021/12/18 02:29:56;;;;;;;17.57;12.73;;;1.20;99.90;;;;;;5100147;28;20175;-87
2021/12/18 02:32:22;;;;;;;18.10;13.33;;;1.00;99.90;;;;;;5111595;28;20216;-87
2021/12/18 02:34:55;;;;;;;20.33;14.63;;;1.00;99.90;;;;;;5122109;28;20175;-89
2021/12/18 02:37:28;;;;;;;20.27;13.23;;;0.90;99.90;;;;;;5105869;28;20182;-87
2021/12/18 02:42:22;;;;;;;21.00;14.93;;;0.70;99.90;;;;;;5114501;28;20197;-89
2021/12/18 02:44:50;;;;;;;56.13;15.70;;;0.60;99.90;;;;;;5114092;28;20222;-90
2021/12/18 02:47:16;;;;;;;21.43;14.43;;;0.50;99.90;;;;;;5100877;28;20176;-88
2021/12/18 02:49:48;;;;;;;43.77;15.13;;;0.50;99.90;;;;;;5124491;28;20263;-87
2021/12/18 02:52:15;;;;;;;37.17;14.90;;;0.40;99.90;;;;;;5135019;28;20177;-88
2021/12/18 02:54:42;;;;;;;53.30;15.13;;;0.30;99.90;;;;;;5109447;28;20182;-87
2021/12/18 02:57:08;;;;;;;49.30;15.03;;;0.20;99.90;;;;;;5121944;28;20181;-88
2021/12/18 02:59:49;;;;;;;28.67;15.03;;;0.20;99.90;;;;;;5123487;28;20188;-90
2021/12/18 03:02:17;;;;;;;34.97;15.83;;;0.10;99.90;;;;;;5117952;28;20270;-88
2021/12/18 03:04:46;;;;;;;28.87;15.87;;;0.10;99.90;;;;;;5116439;28;20202;-94
2021/12/18 03:07:15;;;;;;;29.60;15.83;;;-0.10;99.90;;;;;;5115138;28;20226;-94
2021/12/18 03:23:17;;;;;;;22.03;13.80;;;0.10;99.90;;;;;;5118126;28;20154;-92
2021/12/18 03:25:44;;;;;;;17.20;13.87;;;0.20;99.90;;;;;;5098007;28;20257;-91
2021/12/18 03:28:10;;;;;;;18.67;13.83;;;0.30;99.90;;;;;;5097186;28;20200;-92
2021/12/18 03:30:37;;;;;;;17.80;13.20;;;0.30;99.90;;;;;;5117189;28;20172;-92
2021/12/18 03:33:03;;;;;;;17.23;13.00;;;0.30;99.90;;;;;;5115388;28;20209;-92
2021/12/18 03:35:30;;;;;;;19.23;13.93;;;0.20;99.90;;;;;;5114941;28;20225;-94
2021/12/18 03:37:56;;;;;;;18.53;14.80;;;0.20;99.90;;;;;;5114631;28;20178;-94
2021/12/18 03:40:24;;;;;;;18.50;13.37;;;0.20;99.90;;;;;;5114427;28;20215;-93
2021/12/18 03:42:50;;;;;;;20.57;14.80;;;0.20;99.90;;;;;;5096317;28;20272;-92
2021/12/18 03:45:18;;;;;;;18.27;13.60;;;0.20;99.90;;;;;;5114586;28;20222;-94
2021/12/18 03:47:45;;;;;;;19.63;14.17;;;0.30;99.90;;;;;;5096600;28;20179;-94
2021/12/18 03:50:11;;;;;;;18.40;13.60;;;0.40;99.90;;;;;;5095033;28;20181;-88
2021/12/18 03:52:37;;;;;;;22.13;14.30;;;0.50;99.90;;;;;;5094514;28;20214;-90
2021/12/18 03:55:04;;;;;;;17.97;13.33;;;0.40;99.90;;;;;;5094480;28;20278;-87
2021/12/18 03:57:29;;;;;;;20.50;13.93;;;0.40;99.90;;;;;;5094406;28;20223;-90
2021/12/18 03:59:55;;;;;;;20.27;13.30;;;0.50;99.90;;;;;;5112925;28;20194;-88
2021/12/18 04:02:21;;;;;;;18.70;13.13;;;0.50;99.90;;;;;;5114705;28;20250;-87
2021/12/18 04:04:47;;;;;;;18.23;14.23;;;0.50;99.90;;;;;;5115363;28;20196;-87
2021/12/18 04:07:14;;;;;;;16.10;12.83;;;0.40;99.90;;;;;;5113184;28;20631;-86
2021/12/18 04:09:40;;;;;;;17.50;12.60;;;0.40;99.90;;;;;;5112456;28;20180;-87
2021/12/18 04:12:06;;;;;;;18.97;13.00;;;0.40;99.90;;;;;;5112312;28;20561;-88
2021/12/18 04:14:32;;;;;;;16.93;11.70;;;0.50;99.90;;;;;;5094577;28;20176;-90
2021/12/18 04:16:59;;;;;;;15.93;11.53;;;0.50;99.90;;;;;;5116717;28;20198;-88
2021/12/18 04:19:25;;;;;;;15.50;12.00;;;0.60;99.90;;;;;;5096912;28;20189;-87
2021/12/18 04:21:51;;;;;;;13.53;11.23;;;0.60;99.90;;;;;;5118417;28;20179;-88
2021/12/18 04:24:17;;;;;;;14.87;11.43;;;0.70;99.90;;;;;;5117524;28;20160;-88
2021/12/18 04:26:43;;;;;;;13.37;11.13;;;0.60;99.90;;;;;;5118823;28;20231;-88
2021/12/18 04:29:09;;;;;;;18.07;11.83;;;0.50;99.90;;;;;;5103686;28;20179;-92
2021/12/18 04:31:36;;;;;;;17.63;13.17;;;0.50;99.90;;;;;;5094808;28;20699;-91
2021/12/18 04:34:03;;;;;;;18.67;13.40;;;0.50;99.90;;;;;;5095132;28;20186;-90
2021/12/18 04:36:29;;;;;;;22.20;13.30;;;0.50;99.90;;;;;;5095020;28;20186;-92
2021/12/18 04:38:55;;;;;;;17.57;13.20;;;0.50;99.90;;;;;;5113065;28;20676;-94
2021/12/18 04:41:23;;;;;;;17.13;13.30;;;0.50;99.90;;;;;;5113066;28;20750;-93
2021/12/18 04:43:52;;;;;;;16.73;12.93;;;0.50;99.90;;;;;;5113386;28;20207;-87
2021/12/18 04:46:19;;;;;;;14.57;11.97;;;0.40;99.90;;;;;;5112922;28;20226;-87
2021/12/18 04:48:44;;;;;;;17.90;11.57;;;0.50;99.90;;;;;;5114184;28;20174;-93
2021/12/18 04:51:10;;;;;;;13.50;11.33;;;0.50;99.90;;;;;;5123594;28;20200;-92
2021/12/18 04:53:36;;;;;;;15.30;11.70;;;0.50;99.90;;;;;;5131178;28;20215;-92
2021/12/18 04:56:02;;;;;;;17.47;11.37;;;0.60;99.90;;;;;;5116637;28;20177;-93
2021/12/18 04:58:28;;;;;;;15.10;11.57;;;0.60;99.90;;;;;;5134476;28;20164;-92
2021/12/18 05:00:54;;;;;;;14.93;11.33;;;0.60;99.90;;;;;;5133078;28;20171;-91
2021/12/18 05:03:20;;;;;;;14.43;11.13;;;0.60;99.90;;;;;;5136732;28;20159;-88
2021/12/18 05:05:47;;;;;;;17.87;12.17;;;0.50;99.90;;;;;;5120008;28;20199;-87
2021/12/18 05:08:13;;;;;;;17.93;12.33;;;0.50;99.90;;;;;;5138486;28;20155;-89
2021/12/18 05:10:39;;;;;;;15.50;11.70;;;0.40;99.90;;;;;;5119642;28;20187;-87
2021/12/18 05:13:05;;;;;;;16.43;12.47;;;0.30;99.90;;;;;;5112916;28;20207;-86
2021/12/18 05:15:32;;;;;;;17.03;12.33;;;0.10;99.90;;;;;;5130355;28;20557;-87
2021/12/18 05:17:58;;;;;;;15.80;12.23;;;0.10;99.90;;;;;;5122708;28;20175;-90
2021/12/18 05:20:24;;;;;;;17.30;13.17;;;0.10;99.90;;;;;;5117453;28;20208;-89
2021/12/18 05:22:51;;;;;;;16.53;12.60;;;0.10;99.90;;;;;;5098179;28;20174;-89
2021/12/18 05:25:17;;;;;;;17.90;12.57;;;0.20;99.90;;;;;;5116407;28;20192;-90
2021/12/18 05:27:43;;;;;;;16.00;12.07;;;0.20;99.90;;;;;;5103319;28;20174;-92
2021/12/18 05:30:10;;;;;;;17.97;12.27;;;0.20;99.90;;;;;;5126954;28;20162;-89
2021/12/18 05:32:36;;;;;;;16.63;12.50;;;0.20;99.90;;;;;;5125453;28;20258;-90
2021/12/18 05:35:03;;;;;;;17.43;11.40;;;0.30;99.90;;;;;;5099518;28;20167;-92
2021/12/18 05:37:44;;;;;;;16.33;11.83;;;0.30;99.90;;;;;;5117120;28;20175;-88
2021/12/18 05:40:15;;;;;;;15.73;12.17;;;0.30;99.90;;;;;;5116320;28;20161;-89
2021/12/18 05:42:41;;;;;;;14.03;11.13;;;0.40;99.90;;;;;;5097313;28;20186;-88
2021/12/18 05:45:07;;;;;;;15.00;10.97;;;0.40;99.90;;;;;;5115077;28;20227;-87
2021/12/18 05:47:34;;;;;;;13.70;10.37;;;0.40;99.90;;;;;;5114907;28;20175;-87
2021/12/18 05:50:00;;;;;;;15.13;11.00;;;0.40;99.90;;;;;;5114937;28;20163;-88
2021/12/18 05:52:27;;;;;;;13.27;11.07;;;0.40;99.90;;;;;;5096333;28;20210;-86
2021/12/18 05:54:52;;;;;;;13.23;10.30;;;0.40;99.90;;;;;;5096893;28;20173;-87
2021/12/18 05:57:18;;;;;;;15.87;10.03;;;0.40;99.90;;;;;;5096908;28;20238;-87
2021/12/18 05:59:44;;;;;;;13.23;9.27;;;0.50;99.90;;;;;;5099614;28;20647;-91
2021/12/18 06:02:11;;;;;;;12.27;9.27;;;0.60;99.90;;;;;;5115195;28;20175;-87
2021/12/18 06:04:37;;;;;;;14.23;9.47;;;0.60;99.90;;;;;;5114695;28;20256;-88
2021/12/18 06:07:05;;;;;;;14.47;10.10;;;0.60;99.90;;;;;;5114790;28;20216;-87
2021/12/18 06:09:33;;;;;;;14.47;10.13;;;0.60;99.90;;;;;;5096265;28;20285;-88
2021/12/18 06:12:00;;;;;;;13.80;11.20;;;0.70;99.90;;;;;;5114691;28;20696;-86
2021/12/18 06:14:27;;;;;;;15.37;11.33;;;0.70;99.90;;;;;;5124969;28;20173;-88
2021/12/18 06:16:53;;;;;;;15.53;12.40;;;0.70;99.90;;;;;;5118971;28;20197;-92
2021/12/18 06:19:19;;;;;;;15.63;11.93;;;0.60;99.90;;;;;;5102954;28;20166;-88
2021/12/18 06:21:45;;;;;;;15.17;11.93;;;0.60;99.90;;;;;;5102094;28;20179;-87
2021/12/18 06:24:11;;;;;;;17.60;12.27;;;0.50;99.90;;;;;;5126356;28;20171;-86
2021/12/18 06:26:37;;;;;;;18.67;12.83;;;0.30;99.90;;;;;;5120098;28;20166;-90
2021/12/18 06:29:02;;;;;;;15.83;11.53;;;0.20;99.90;;;;;;5115002;28;20179;-92
2021/12/18 06:31:28;;;;;;;18.93;14.03;;;0.20;99.90;;;;;;5097168;28;20179;-88
2021/12/18 06:33:54;;;;;;;19.13;13.83;;;0.10;99.90;;;;;;5115011;28;20927;-92
2021/12/18 06:36:20;;;;;;;18.63;12.50;;;0.00;99.90;;;;;;5097061;28;20207;-90
2021/12/18 06:38:46;;;;;;;18.50;12.10;;;0.00;99.90;;;;;;5115703;28;20182;-92
2021/12/18 06:41:12;;;;;;;17.70;13.50;;;-0.10;99.90;;;;;;5115872;28;20180;-92
2021/12/18 06:43:38;;;;;;;17.20;12.53;;;-0.20;99.90;;;;;;5115830;28;20179;-88
2021/12/18 06:46:04;;;;;;;16.83;12.83;;;-0.20;99.90;;;;;;5097386;28;20233;-93
2021/12/18 06:48:30;;;;;;;18.97;12.77;;;-0.20;99.90;;;;;;5116305;28;20175;-92
2021/12/18 06:50:55;;;;;;;17.70;11.23;;;-0.30;99.90;;;;;;5112762;28;20204;-87
2021/12/18 06:53:21;;;;;;;18.90;12.63;;;-0.30;99.90;;;;;;5114485;28;21081;-87
2021/12/18 06:55:47;;;;;;;20.00;13.77;;;-0.30;99.90;;;;;;5130934;28;20170;-91
2021/12/18 06:58:13;;;;;;;19.73;13.30;;;-0.30;99.90;;;;;;5125362;28;20186;-91
2021/12/18 07:00:39;;;;;;;16.70;12.90;;;-0.30;99.90;;;;;;5107826;28;20193;-91
2021/12/18 07:03:05;;;;;;;16.93;12.97;;;-0.30;99.90;;;;;;5098256;28;20184;-93
2021/12/18 07:05:30;;;;;;;17.43;13.00;;;-0.40;99.90;;;;;;5115729;28;20526;-88
2021/12/18 07:07:56;;;;;;;16.40;12.80;;;-0.30;99.90;;;;;;5097805;28;20220;-85
2021/12/18 07:10:22;;;;;;;23.27;13.67;;;-0.30;99.90;;;;;;5098120;28;20694;-89
2021/12/18 07:12:48;;;;;;;17.23;12.37;;;-0.30;99.90;;;;;;5097678;28;20217;-94
2021/12/18 07:15:14;;;;;;;17.97;13.90;;;-0.30;99.90;;;;;;5116041;28;20158;-94
2021/12/18 07:17:43;;;;;;;17.03;13.83;;;-0.30;99.90;;;;;;5097757;28;20265;-93
2021/12/18 07:20:12;;;;;;;18.47;13.73;;;-0.30;99.90;;;;;;5125173;28;20174;-92
2021/12/18 07:22:38;;;;;;;20.63;14.30;;;-0.20;99.90;;;;;;5126380;28;20201;-93
2021/12/18 07:25:04;;;;;;;21.50;14.07;;;-0.30;99.90;;;;;;5107190;28;20164;-89
2021/12/18 07:27:30;;;;;;;17.90;14.03;;;-0.40;99.90;;;;;;5132323;28;20167;-93
2021/12/18 07:29:56;;;;;;;20.80;14.30;;;-0.30;99.90;;;;;;5084911;28;20186;-93
2021/12/18 07:32:22;;;;;;;21.97;14.40;;;-0.30;99.90;;;;;;5099909;28;20292;-92
2021/12/18 07:34:48;;;;;;;19.33;14.50;;;-0.40;99.90;;;;;;5117085;28;20223;-91
2021/12/18 07:37:14;;;;;;;24.27;14.77;;;-0.40;99.90;;;;;;5115588;28;20166;-87
2021/12/18 07:39:40;;;;;;;21.13;14.17;;;-0.40;99.90;;;;;;5115239;28;20170;-86
2021/12/18 07:42:06;;;;;;;22.77;14.60;;;-0.50;99.90;;;;;;5117343;28;20213;-91
2021/12/18 07:44:31;;;;;;;19.90;14.03;;;-0.40;99.90;;;;;;5114692;28;20230;-90
2021/12/18 07:46:57;;;;;;;21.50;14.83;;;-0.40;99.90;;;;;;5114095;28;20182;-89
2021/12/18 07:49:23;;;;;;;25.23;16.90;;;-0.30;99.90;;;;;;5115037;28;20261;-88
2021/12/18 07:51:52;;;;;;;22.93;15.80;;;-0.30;99.90;;;;;;5110987;28;20277;-89
2021/12/18 07:54:18;;;;;;;24.07;17.27;;;-0.30;99.90;;;;;;5114330;28;20186;-87
2021/12/18 07:56:44;;;;;;;18.27;13.97;;;-0.20;99.90;;;;;;5131129;28;20166;-92
2021/12/18 07:59:13;;;;;;;21.07;14.37;;;-0.10;99.90;;;;;;5123703;28;20197;-86
2021/12/18 08:01:41;;;;;;;21.60;14.90;;;-0.10;99.90;;;;;;5123498;28;20264;-87
2021/12/18 08:04:06;;;;;;;19.00;13.50;;;-0.10;99.90;;;;;;5104438;28;20204;-90
2021/12/18 08:06:32;;;;;;;17.70;14.03;;;0.00;99.90;;;;;;5102113;28;20178;-88
2021/12/18 08:08:58;;;;;;;18.83;14.33;;;0.10;99.90;;;;;;5117605;28;20204;-87
2021/12/18 08:11:24;;;;;;;19.37;14.57;;;0.00;99.90;;;;;;5132608;28;20175;-90
2021/12/18 08:13:49;;;;;;;19.63;14.33;;;0.20;99.90;;;;;;5117917;28;20214;-95
2021/12/18 08:16:16;;;;;;;22.40;15.00;;;0.20;99.90;;;;;;5117363;28;20201;-89
2021/12/18 08:18:41;;;;;;;17.00;13.57;;;0.30;99.90;;;;;;5115174;28;20167;-91
2021/12/18 08:21:07;;;;;;;17.97;13.60;;;0.40;99.90;;;;;;5118317;28;20164;-94
2021/12/18 08:23:33;;;;;;;19.50;13.43;;;0.50;99.90;;;;;;5127964;28;20231;-96
2021/12/18 08:25:59;;;;;;;17.97;13.23;;;0.60;99.90;;;;;;5121745;28;20253;-91
2021/12/18 08:28:27;;;;;;;22.87;14.17;;;0.80;99.90;;;;;;5099612;28;20195;-96
2021/12/18 08:30:53;;;;;;;19.33;13.27;;;1.20;99.90;;;;;;5097176;28;20238;-95
2021/12/18 08:33:18;;;;;;;17.90;13.53;;;1.40;99.90;;;;;;5115794;28;20233;-91
2021/12/18 08:35:44;;;;;;;18.77;14.10;;;1.50;99.90;;;;;;5099970;28;20175;-89
2021/12/18 08:38:10;;;;;;;20.83;15.30;;;1.50;99.90;;;;;;5115158;28;20180;-89
2021/12/18 08:40:36;;;;;;;18.80;14.53;;;1.60;99.90;;;;;;5133958;28;20163;-93
2021/12/18 08:43:02;;;;;;;19.70;14.20;;;1.60;99.90;;;;;;5115377;28;20193;-88
2021/12/18 08:45:29;;;;;;;21.97;14.57;;;1.60;99.90;;;;;;5122171;28;20271;-86
2021/12/18 08:47:55;;;;;;;19.83;14.53;;;1.50;99.90;;;;;;5120517;28;20167;-95
2021/12/18 08:50:21;;;;;;;22.33;14.80;;;1.60;99.90;;;;;;5122642;28;20163;-89
2021/12/18 08:52:49;;;;;;;22.93;14.63;;;1.50;99.90;;;;;;5101349;28;20451;-88
2021/12/18 08:55:19;;;;;;;23.33;14.93;;;1.70;99.90;;;;;;5102905;28;20190;-91
2021/12/18 08:57:48;;;;;;;20.13;15.03;;;1.70;99.90;;;;;;5119873;28;20181;-94
2021/12/18 09:00:18;;;;;;;20.77;14.60;;;1.70;99.90;;;;;;5119941;28;20253;-93
2021/12/18 09:02:46;;;;;;;18.43;13.87;;;1.70;99.90;;;;;;5103927;28;20175;-89
2021/12/18 09:05:13;;;;;;;23.47;15.33;;;1.70;99.90;;;;;;5122415;28;20176;-96
2021/12/18 09:07:39;;;;;;;26.47;15.77;;;1.70;99.90;;;;;;5121656;28;20246;-90
2021/12/18 09:10:07;;;;;;;20.73;14.17;;;1.60;99.90;;;;;;5107738;28;20186;-87
2021/12/18 09:12:32;;;;;;;20.60;14.87;;;1.60;99.90;;;;;;5116107;28;20220;-86
2021/12/18 09:14:58;;;;;;;21.73;15.13;;;1.60;99.90;;;;;;5101238;28;20185;-88
2021/12/18 09:17:24;;;;;;;23.17;14.90;;;1.60;99.90;;;;;;5121882;28;20169;-89
2021/12/18 09:19:51;;;;;;;24.93;15.07;;;1.60;99.90;;;;;;5103331;28;20214;-94
2021/12/18 09:22:18;;;;;;;23.63;13.87;;;1.70;99.90;;;;;;5106286;28;20191;-96
2021/12/18 09:24:44;;;;;;;19.17;12.87;;;1.70;99.90;;;;;;5100474;28;20193;-90
2021/12/18 09:27:10;;;;;;;24.17;13.13;;;1.70;99.90;;;;;;5093138;28;20175;-96
2021/12/18 09:29:35;;;;;;;20.07;12.37;;;1.70;99.90;;;;;;5089773;28;20183;-96
2021/12/18 09:32:01;;;;;;;17.33;12.30;;;1.60;99.90;;;;;;5106840;28;20197;-88
2021/12/18 09:34:29;;;;;;;18.90;12.17;;;1.60;99.90;;;;;;5103482;28;20182;-95
2021/12/18 09:36:55;;;;;;;18.20;12.73;;;1.60;99.90;;;;;;5136001;28;20163;-92
2021/12/18 09:39:21;;;;;;;15.03;11.40;;;1.70;99.90;;;;;;5119690;28;20204;-90
2021/12/18 09:41:51;;;;;;;15.97;12.17;;;1.70;99.90;;;;;;5116002;28;20206;-90
2021/12/18 09:44:28;;;;;;;15.97;12.30;;;1.80;99.90;;;;;;5118830;28;20176;-90
2021/12/18 09:46:55;;;;;;;15.43;13.00;;;1.80;99.90;;;;;;5123769;28;20188;-87
2021/12/18 09:49:21;;;;;;;16.40;12.90;;;2.00;99.90;;;;;;5136006;28;20180;-88
2021/12/18 09:51:47;;;;;;;22.00;12.87;;;2.00;99.90;;;;;;5103526;28;20203;-88
2021/12/18 09:54:16;;;;;;;12.70;11.00;;;2.10;99.90;;;;;;5115738;28;20185;-86
2021/12/18 09:56:42;;;;;;;19.67;12.20;;;2.10;99.90;;;;;;5113576;28;20168;-85
2021/12/18 09:59:10;;;;;;;17.00;12.03;;;2.10;99.90;;;;;;5130328;28;20168;-86
2021/12/18 10:01:36;;;;;;;21.07;13.23;;;2.20;99.90;;;;;;5118457;28;20164;-89
2021/12/18 10:04:03;;;;;;;18.97;12.80;;;2.30;99.90;;;;;;5136862;28;20176;-96
2021/12/18 10:06:39;;;;;;;17.33;13.03;;;2.40;99.90;;;;;;5126266;28;20174;-92
2021/12/18 10:09:21;;;;;;;17.87;12.27;;;2.50;99.90;;;;;;5121502;28;20171;-87
2021/12/18 10:11:54;;;;;;;17.53;12.23;;;2.60;99.90;;;;;;5095515;28;20398;-89
2021/12/18 10:14:38;;;;;;;14.70;11.33;;;2.70;99.90;;;;;;5105489;28;20243;-88
2021/12/18 10:17:18;;;;;;;14.90;9.40;;;2.80;99.90;;;;;;5125536;28;20164;-88
2021/12/18 10:19:45;;;;;;;10.03;7.13;;;3.00;99.90;;;;;;5102534;28;20169;-88
2021/12/18 10:22:12;;;;;;;6.20;5.00;;;3.30;99.90;;;;;;5107899;23;20923;-91
2021/12/18 10:24:44;;;;;;;7.10;5.90;;;4.00;97.90;;;;;;5062398;28;20711;-87
2021/12/18 10:27:23;;;;;;;8.27;5.60;;;4.40;97.70;;;;;;5074379;28;20188;-90
2021/12/18 10:29:51;;;;;;;7.70;5.00;;;4.90;96.80;;;;;;5092552;28;20188;-89
2021/12/18 10:32:20;;;;;;;9.83;4.43;;;5.30;95.10;;;;;;5068922;28;20212;-89
2021/12/18 10:34:54;;;;;;;11.73;6.03;;;5.50;95.00;;;;;;5079247;28;20175;-87
2021/12/18 10:37:21;;;;;;;4.63;3.23;;;5.50;95.10;;;;;;5060640;28;20721;-90
2021/12/18 10:39:53;;;;;;;6.50;5.80;;;5.60;94.10;;;;;;5059802;28;20175;-90
2021/12/18 10:42:29;;;;;;;10.33;8.10;;;5.70;94.60;;;;;;5074575;28;20179;-91
2021/12/18 10:45:16;;;;;;;9.20;8.30;;;5.70;98.20;;;;;;5063864;28;20172;-88
2021/12/18 10:48:05;;;;;;;10.23;8.50;;;5.50;99.60;;;;;;5060646;28;20642;-89
2021/12/18 10:51:07;;;;;;;11.30;9.30;;;5.20;99.90;;;;;;5064144;28;20174;-91
2021/12/18 10:53:34;;;;;;;12.97;9.53;;;5.10;99.90;;;;;;4981946;28;20219;-90
2021/12/18 10:56:02;;;;;;;13.57;9.53;;;5.00;99.90;;;;;;4982636;28;20265;-89
2021/12/18 10:58:39;;;;;;;10.27;8.83;;;4.80;99.90;;;;;;5052803;22;20173;-88
2021/12/18 11:01:15;;;;;;;8.80;7.77;;;4.80;99.90;;;;;;5025816;28;20183;-89
2021/12/18 11:03:49;;;;;;;8.77;7.47;;;4.70;99.90;;;;;;5040945;28;20177;-89
2021/12/18 11:06:22;;;;;;;11.57;8.37;;;4.70;99.90;;;;;;5056708;28;20169;-89
2021/12/18 11:09:07;;;;;;;8.47;7.67;;;4.50;99.90;;;;;;5059537;28;20246;-91
2021/12/18 11:14:16;;;;;;;10.60;7.97;;;4.50;99.90;;;;;;5061173;28;20209;-94
2021/12/18 11:16:50;;;;;;;12.67;7.50;;;4.50;99.90;;;;;;5095119;22;20222;-94
2021/12/18 11:19:22;;;;;;;8.50;7.60;;;4.40;99.90;;;;;;5075042;28;20262;-93
2021/12/18 11:22:06;;;;;;;9.47;6.80;;;4.40;99.90;;;;;;5072214;28;20158;-95
2021/12/18 11:25:22;;;;;;;9.13;6.80;;;4.40;99.90;;;;;;5076973;28;20170;-87
2021/12/18 11:27:51;;;;;;;8.63;7.13;;;4.40;99.90;;;;;;5074435;28;20191;-92
2021/12/18 11:30:41;;;;;;;8.63;7.13;;;4.40;99.90;;;;;;5090865;28;20203;-92
2021/12/18 11:33:10;;;;;;;11.77;6.87;;;4.40;99.90;;;;;;5073895;28;20216;-94
2021/12/18 11:35:36;;;;;;;9.20;6.60;;;4.50;99.90;;;;;;5092518;28;20643;-88
2021/12/18 11:38:07;;;;;;;10.27;7.50;;;4.50;99.90;;;;;;5089005;28;20175;-88
2021/12/18 11:40:37;;;;;;;9.37;7.80;;;4.60;99.90;;;;;;5077221;28;20247;-88
2021/12/18 11:43:38;;;;;;;11.00;8.47;;;4.60;99.90;;;;;;5077796;28;20187;-90
2021/12/18 11:46:27;;;;;;;10.80;7.67;;;4.70;99.90;;;;;;5060269;28;20198;-89
2021/12/18 11:48:59;;;;;;;8.57;7.67;;;4.70;99.90;;;;;;5084268;28;20172;-93
2021/12/18 11:51:29;;;;;;;10.17;7.10;;;4.80;99.90;;;;;;5073828;28;20194;-92
2021/12/18 11:53:57;;;;;;;8.50;7.20;;;4.80;99.90;;;;;;5079939;28;20199;-88
2021/12/18 11:56:25;;;;;;;10.33;7.57;;;4.90;99.90;;;;;;5062905;28;20187;-87
2021/12/18 11:59:01;;;;;;;9.23;8.13;;;4.90;99.90;;;;;;5060515;28;20211;-88
2021/12/18 12:01:30;;;;;;;15.63;8.20;;;5.00;99.90;;;;;;5058917;28;20168;-87
2021/12/18 12:03:58;;;;;;;8.53;7.73;;;5.00;99.90;;;;;;5075995;28;20204;-88
2021/12/18 12:06:44;;;;;;;10.57;7.70;;;5.10;99.90;;;;;;5076357;28;20171;-88
2021/12/18 12:12:02;;;;;;;11.93;7.87;;;5.10;99.90;;;;;;5098628;22;20253;-88
2021/12/18 12:14:30;;;;;;;9.70;7.47;;;5.20;99.90;;;;;;5081965;28;20276;-88
2021/12/18 12:17:29;;;;;;;11.00;7.23;;;5.20;99.90;;;;;;5127072;22;20251;-85
2021/12/18 12:20:05;;;;;;;7.80;7.00;;;5.30;99.90;;;;;;5083880;28;20177;-87
2021/12/18 12:22:37;;;;;;;8.97;7.77;;;5.40;99.90;;;;;;5059026;28;20179;-88
2021/12/18 12:25:06;;;;;;;11.17;7.27;;;5.40;99.90;;;;;;5057380;28;20186;-89
2021/12/18 12:27:44;;;;;;;7.47;6.40;;;5.50;99.90;;;;;;5058002;28;20662;-92
2021/12/18 12:30:43;;;;;;;9.97;7.40;;;5.60;99.90;;;;;;5058147;28;20175;-92
2021/12/18 12:33:12;;;;;;;8.80;7.70;;;5.80;99.90;;;;;;5058730;28;20218;-86
2021/12/18 12:36:06;;;;;;;11.30;6.33;;;6.00;99.90;;;;;;5075884;28;20174;-92
2021/12/18 12:38:53;;;;;;;6.90;5.50;;;6.20;99.90;;;;;;5077029;28;20209;-87
2021/12/18 12:41:31;;;;;;;9.43;6.73;;;6.30;98.70;;;;;;5062033;28;20183;-88
2021/12/18 12:44:34;;;;;;;7.30;6.07;;;6.30;97.80;;;;;;5078416;28;20164;-88
2021/12/18 12:47:27;;;;;;;5.70;5.00;;;6.40;97.50;;;;;;5079475;28;20277;-90
2021/12/18 12:49:56;;;;;;;6.60;6.00;;;6.50;98.10;;;;;;5080420;28;20161;-89
2021/12/18 12:52:28;;;;;;;8.33;5.80;;;6.40;97.90;;;;;;5060345;28;20201;-92
2021/12/18 12:55:05;;;;;;;12.83;6.23;;;6.40;97.90;;;;;;5077390;28;20678;-89
2021/12/18 12:57:58;;;;;;;6.67;6.03;;;6.40;97.30;;;;;;5058681;28;20176;-90
2021/12/18 13:00:24;;;;;;;9.23;7.03;;;6.50;98.10;;;;;;5082120;28;20162;-88
2021/12/18 13:02:54;;;;;;;9.57;6.70;;;6.50;98.10;;;;;;5075244;28;20190;-88
2021/12/18 13:05:21;;;;;;;8.27;5.83;;;6.50;97.10;;;;;;5075481;28;20186;-87
2021/12/18 13:07:55;;;;;;;7.17;5.47;;;6.50;97.20;;;;;;5087714;28;20176;-88
2021/12/18 13:10:35;;;;;;;5.87;5.33;;;6.50;97.40;;;;;;5071590;28;20187;-88
2021/12/18 13:13:12;;;;;;;6.50;5.90;;;6.50;97.60;;;;;;5049447;28;20237;-87
2021/12/18 13:16:03;;;;;;;10.07;5.37;;;6.50;97.20;;;;;;5042458;28;20182;-90
2021/12/18 13:19:05;;;;;;;8.90;6.20;;;6.50;97.60;;;;;;5064035;28;20174;-91
2021/12/18 13:21:33;;;;;;;7.27;5.50;;;6.50;96.80;;;;;;5039904;28;20183;-90
2021/12/18 13:24:08;;;;;;;6.33;5.73;;;6.60;97.50;;;;;;5037182;28;20233;-89
2021/12/18 13:26:44;;;;;;;6.70;6.03;;;6.60;97.60;;;;;;5042147;28;20207;-93
2021/12/18 13:29:21;;;;;;;11.57;6.33;;;6.60;97.80;;;;;;5040384;28;20716;-95
2021/12/18 13:31:54;;;;;;;7.13;6.47;;;6.50;97.80;;;;;;5041854;28;20171;-89
2021/12/18 13:34:27;;;;;;;7.03;6.33;;;6.50;97.90;;;;;;5061797;28;20719;-87
2021/12/18 13:36:59;;;;;;;6.67;5.97;;;6.60;98.30;;;;;;5063180;28;20540;-86